sensor_id;sensor_type;location;lat;lon;timestamp;P1;durP1;ratioP1;P2;durP2;ratioP2
74168;SDS011;62523;53.336;83.690;2023-03-14T00:04:34;16.80;;;7.93;;
74168;SDS011;62523;53.336;83.690;2023-03-14T00:09:54;21.75;;;8.43;;
74168;SDS011;62523;53.336;83.690;2023-03-14T00:15:13;22.00;;;8.50;;
74168;SDS011;62523;53.336;83.690;2023-03-14T00:20:33;18.05;;;6.97;;
74168;SDS011;62523;53.336;83.690;2023-03-14T00:25:53;12.70;;;7.03;;
74168;SDS011;62523;53.336;83.690;2023-03-14T00:31:13;19.25;;;8.05;;
74168;SDS011;62523;53.336;83.690;2023-03-14T00:36:34;17.90;;;5.53;;
74168;SDS011;62523;53.336;83.690;2023-03-14T00:41:54;17.65;;;7.93;;
74168;SDS011;62523;53.336;83.690;2023-03-14T00:47:13;14.38;;;7.45;;
74168;SDS011;62523;53.336;83.690;2023-03-14T00:52:33;20.52;;;8.10;;
74168;SDS011;62523;53.336;83.690;2023-03-14T00:57:52;15.70;;;6.35;;
74168;SDS011;62523;53.336;83.690;2023-03-14T01:02:53;19.77;;;9.48;;
74168;SDS011;62523;53.336;83.690;2023-03-14T01:07:54;23.77;;;8.50;;
74168;SDS011;62523;53.336;83.690;2023-03-14T01:12:56;26.87;;;10.43;;
74168;SDS011;62523;53.336;83.690;2023-03-14T01:17:57;16.07;;;9.10;;
74168;SDS011;62523;53.336;83.690;2023-03-14T01:22:58;22.35;;;12.35;;
74168;SDS011;62523;53.336;83.690;2023-03-14T01:27:59;40.45;;;16.13;;
74168;SDS011;62523;53.336;83.690;2023-03-14T01:33:01;31.98;;;14.48;;
74168;SDS011;62523;53.336;83.690;2023-03-14T01:38:02;46.60;;;17.10;;
74168;SDS011;62523;53.336;83.690;2023-03-14T01:43:12;36.83;;;13.88;;
74168;SDS011;62523;53.336;83.690;2023-03-14T01:48:16;39.53;;;18.88;;
74168;SDS011;62523;53.336;83.690;2023-03-14T01:53:17;29.40;;;12.30;;
74168;SDS011;62523;53.336;83.690;2023-03-14T01:58:21;46.97;;;21.38;;
74168;SDS011;62523;53.336;83.690;2023-03-14T02:03:27;42.33;;;18.50;;
74168;SDS011;62523;53.336;83.690;2023-03-14T02:08:31;55.80;;;21.80;;
74168;SDS011;62523;53.336;83.690;2023-03-14T02:13:35;57.20;;;25.30;;
74168;SDS011;62523;53.336;83.690;2023-03-14T02:18:37;46.92;;;20.95;;
74168;SDS011;62523;53.336;83.690;2023-03-14T02:23:48;64.75;;;23.45;;
74168;SDS011;62523;53.336;83.690;2023-03-14T02:28:51;49.13;;;21.85;;
74168;SDS011;62523;53.336;83.690;2023-03-14T02:38:58;32.00;;;13.93;;
74168;SDS011;62523;53.336;83.690;2023-03-14T02:44:08;39.72;;;14.30;;
74168;SDS011;62523;53.336;83.690;2023-03-14T02:49:10;54.97;;;15.05;;
74168;SDS011;62523;53.336;83.690;2023-03-14T02:54:14;31.38;;;13.85;;
74168;SDS011;62523;53.336;83.690;2023-03-14T02:59:16;29.15;;;8.88;;
74168;SDS011;62523;53.336;83.690;2023-03-14T03:04:17;30.38;;;9.20;;
74168;SDS011;62523;53.336;83.690;2023-03-14T03:09:21;30.65;;;11.32;;
74168;SDS011;62523;53.336;83.690;2023-03-14T03:14:23;24.52;;;9.98;;
74168;SDS011;62523;53.336;83.690;2023-03-14T03:19:26;28.70;;;9.57;;
74168;SDS011;62523;53.336;83.690;2023-03-14T03:24:27;28.08;;;8.93;;
74168;SDS011;62523;53.336;83.690;2023-03-14T03:29:28;22.90;;;9.32;;
74168;SDS011;62523;53.336;83.690;2023-03-14T03:34:29;17.23;;;7.63;;
74168;SDS011;62523;53.336;83.690;2023-03-14T03:39:31;19.35;;;8.13;;
74168;SDS011;62523;53.336;83.690;2023-03-14T03:44:32;17.13;;;8.80;;
74168;SDS011;62523;53.336;83.690;2023-03-14T03:49:33;12.93;;;7.10;;
74168;SDS011;62523;53.336;83.690;2023-03-14T03:54:34;17.67;;;6.63;;
74168;SDS011;62523;53.336;83.690;2023-03-14T03:59:36;18.70;;;6.97;;
74168;SDS011;62523;53.336;83.690;2023-03-14T04:04:39;13.57;;;6.72;;
74168;SDS011;62523;53.336;83.690;2023-03-14T04:09:40;19.70;;;7.88;;
74168;SDS011;62523;53.336;83.690;2023-03-14T04:14:41;35.57;;;8.87;;
74168;SDS011;62523;53.336;83.690;2023-03-14T04:19:42;19.30;;;7.20;;
74168;SDS011;62523;53.336;83.690;2023-03-14T04:24:43;12.83;;;6.50;;
74168;SDS011;62523;53.336;83.690;2023-03-14T04:29:45;18.15;;;7.40;;
74168;SDS011;62523;53.336;83.690;2023-03-14T04:34:46;14.63;;;7.17;;
74168;SDS011;62523;53.336;83.690;2023-03-14T04:39:47;14.25;;;3.97;;
74168;SDS011;62523;53.336;83.690;2023-03-14T04:44:48;13.77;;;7.93;;
74168;SDS011;62523;53.336;83.690;2023-03-14T04:49:50;24.17;;;6.00;;
74168;SDS011;62523;53.336;83.690;2023-03-14T04:54:51;15.00;;;5.40;;
74168;SDS011;62523;53.336;83.690;2023-03-14T04:59:52;10.80;;;5.10;;
74168;SDS011;62523;53.336;83.690;2023-03-14T05:04:53;12.57;;;4.83;;
74168;SDS011;62523;53.336;83.690;2023-03-14T05:09:56;12.48;;;4.55;;
74168;SDS011;62523;53.336;83.690;2023-03-14T05:14:57;20.27;;;3.33;;
74168;SDS011;62523;53.336;83.690;2023-03-14T05:19:58;11.63;;;5.43;;
74168;SDS011;62523;53.336;83.690;2023-03-14T05:24:59;5.97;;;2.70;;
74168;SDS011;62523;53.336;83.690;2023-03-14T05:30:01;5.87;;;3.23;;
74168;SDS011;62523;53.336;83.690;2023-03-14T05:35:04;6.65;;;2.58;;
74168;SDS011;62523;53.336;83.690;2023-03-14T05:40:06;5.60;;;3.13;;
74168;SDS011;62523;53.336;83.690;2023-03-14T05:45:09;12.35;;;3.20;;
74168;SDS011;62523;53.336;83.690;2023-03-14T05:50:10;12.48;;;4.90;;
74168;SDS011;62523;53.336;83.690;2023-03-14T05:55:12;6.43;;;2.90;;
74168;SDS011;62523;53.336;83.690;2023-03-14T06:00:13;6.00;;;2.42;;
74168;SDS011;62523;53.336;83.690;2023-03-14T06:05:15;5.72;;;2.25;;
74168;SDS011;62523;53.336;83.690;2023-03-14T06:10:16;3.75;;;1.40;;
74168;SDS011;62523;53.336;83.690;2023-03-14T06:15:17;6.57;;;3.17;;
74168;SDS011;62523;53.336;83.690;2023-03-14T06:20:18;4.83;;;2.37;;
74168;SDS011;62523;53.336;83.690;2023-03-14T06:25:19;5.20;;;3.40;;
74168;SDS011;62523;53.336;83.690;2023-03-14T06:30:21;7.40;;;2.88;;
74168;SDS011;62523;53.336;83.690;2023-03-14T06:35:22;7.83;;;3.73;;
74168;SDS011;62523;53.336;83.690;2023-03-14T06:40:23;3.15;;;1.83;;
74168;SDS011;62523;53.336;83.690;2023-03-14T06:45:24;5.23;;;1.77;;
74168;SDS011;62523;53.336;83.690;2023-03-14T06:50:26;3.50;;;2.20;;
74168;SDS011;62523;53.336;83.690;2023-03-14T06:55:27;7.80;;;3.60;;
74168;SDS011;62523;53.336;83.690;2023-03-14T07:00:28;3.47;;;1.93;;
74168;SDS011;62523;53.336;83.690;2023-03-14T07:05:29;5.70;;;2.40;;
74168;SDS011;62523;53.336;83.690;2023-03-14T07:10:30;5.87;;;2.53;;
74168;SDS011;62523;53.336;83.690;2023-03-14T07:15:31;3.57;;;2.13;;
74168;SDS011;62523;53.336;83.690;2023-03-14T07:20:33;3.55;;;1.27;;
74168;SDS011;62523;53.336;83.690;2023-03-14T07:25:34;8.10;;;2.67;;
74168;SDS011;62523;53.336;83.690;2023-03-14T07:30:35;5.63;;;2.63;;
74168;SDS011;62523;53.336;83.690;2023-03-14T07:35:36;5.93;;;2.37;;
74168;SDS011;62523;53.336;83.690;2023-03-14T07:40:38;4.03;;;1.52;;
74168;SDS011;62523;53.336;83.690;2023-03-14T07:45:39;3.55;;;2.28;;
74168;SDS011;62523;53.336;83.690;2023-03-14T07:50:40;1.93;;;1.27;;
74168;SDS011;62523;53.336;83.690;2023-03-14T07:55:41;4.17;;;2.27;;
74168;SDS011;62523;53.336;83.690;2023-03-14T08:00:43;2.20;;;1.33;;
74168;SDS011;62523;53.336;83.690;2023-03-14T08:05:49;3.25;;;0.98;;
74168;SDS011;62523;53.336;83.690;2023-03-14T08:10:51;4.35;;;2.03;;
74168;SDS011;62523;53.336;83.690;2023-03-14T08:15:52;2.83;;;1.13;;
74168;SDS011;62523;53.336;83.690;2023-03-14T08:20:53;3.73;;;1.50;;
74168;SDS011;62523;53.336;83.690;2023-03-14T08:25:54;0.77;;;0.70;;
74168;SDS011;62523;53.336;83.690;2023-03-14T08:30:55;10.13;;;1.03;;
74168;SDS011;62523;53.336;83.690;2023-03-14T08:35:58;2.20;;;0.85;;
74168;SDS011;62523;53.336;83.690;2023-03-14T08:41:01;8.63;;;1.90;;
74168;SDS011;62523;53.336;83.690;2023-03-14T08:46:04;7.32;;;2.20;;
74168;SDS011;62523;53.336;83.690;2023-03-14T08:51:10;6.47;;;2.13;;
74168;SDS011;62523;53.336;83.690;2023-03-14T08:56:15;3.33;;;1.40;;
74168;SDS011;62523;53.336;83.690;2023-03-14T09:01:16;4.20;;;2.03;;
74168;SDS011;62523;53.336;83.690;2023-03-14T09:06:20;5.00;;;1.33;;
74168;SDS011;62523;53.336;83.690;2023-03-14T09:11:21;7.53;;;2.90;;
74168;SDS011;62523;53.336;83.690;2023-03-14T09:16:22;9.77;;;3.07;;
74168;SDS011;62523;53.336;83.690;2023-03-14T09:21:23;8.55;;;1.83;;
74168;SDS011;62523;53.336;83.690;2023-03-14T09:26:25;5.05;;;2.75;;
74168;SDS011;62523;53.336;83.690;2023-03-14T09:31:26;4.63;;;1.90;;
74168;SDS011;62523;53.336;83.690;2023-03-14T09:36:28;5.32;;;2.33;;
74168;SDS011;62523;53.336;83.690;2023-03-14T09:41:30;3.65;;;1.05;;
74168;SDS011;62523;53.336;83.690;2023-03-14T09:46:35;1.45;;;0.88;;
74168;SDS011;62523;53.336;83.690;2023-03-14T09:51:38;3.58;;;1.60;;
74168;SDS011;62523;53.336;83.690;2023-03-14T09:56:40;5.20;;;2.03;;
74168;SDS011;62523;53.336;83.690;2023-03-14T10:01:42;3.72;;;1.90;;
74168;SDS011;62523;53.336;83.690;2023-03-14T10:06:44;3.08;;;1.38;;
74168;SDS011;62523;53.336;83.690;2023-03-14T10:11:45;9.00;;;2.22;;
74168;SDS011;62523;53.336;83.690;2023-03-14T10:16:46;0.90;;;0.60;;
74168;SDS011;62523;53.336;83.690;2023-03-14T10:21:52;1.87;;;0.90;;
74168;SDS011;62523;53.336;83.690;2023-03-14T10:26:55;4.35;;;2.22;;
74168;SDS011;62523;53.336;83.690;2023-03-14T10:32:03;6.32;;;3.92;;
74168;SDS011;62523;53.336;83.690;2023-03-14T10:37:16;7.47;;;3.03;;
74168;SDS011;62523;53.336;83.690;2023-03-14T10:42:24;6.60;;;3.70;;
74168;SDS011;62523;53.336;83.690;2023-03-14T10:47:32;6.55;;;3.03;;
74168;SDS011;62523;53.336;83.690;2023-03-14T10:52:34;15.30;;;3.97;;
74168;SDS011;62523;53.336;83.690;2023-03-14T10:57:42;6.05;;;3.58;;
74168;SDS011;62523;53.336;83.690;2023-03-14T11:24:53;8.68;;;4.72;;
74168;SDS011;62523;53.336;83.690;2023-03-14T11:35:36;11.23;;;5.90;;
74168;SDS011;62523;53.336;83.690;2023-03-14T11:40:58;13.95;;;6.63;;
74168;SDS011;62523;53.336;83.690;2023-03-14T11:46:05;9.30;;;4.85;;
74168;SDS011;62523;53.336;83.690;2023-03-14T11:51:13;12.00;;;6.55;;
74168;SDS011;62523;53.336;83.690;2023-03-14T11:56:32;22.48;;;14.27;;
74168;SDS011;62523;53.336;83.690;2023-03-14T12:02:12;15.20;;;8.57;;
74168;SDS011;62523;53.336;83.690;2023-03-14T12:07:19;15.15;;;8.18;;
74168;SDS011;62523;53.336;83.690;2023-03-14T12:12:25;17.10;;;9.77;;
74168;SDS011;62523;53.336;83.690;2023-03-14T12:22:47;18.02;;;8.55;;
74168;SDS011;62523;53.336;83.690;2023-03-14T12:38:16;17.98;;;8.35;;
74168;SDS011;62523;53.336;83.690;2023-03-14T12:43:27;22.45;;;8.70;;
74168;SDS011;62523;53.336;83.690;2023-03-14T12:48:34;18.75;;;9.65;;
74168;SDS011;62523;53.336;83.690;2023-03-14T13:04:09;19.95;;;11.07;;
74168;SDS011;62523;53.336;83.690;2023-03-14T13:14:34;22.55;;;13.13;;
74168;SDS011;62523;53.336;83.690;2023-03-14T13:24:37;31.92;;;15.10;;
74168;SDS011;62523;53.336;83.690;2023-03-14T13:29:38;36.17;;;16.15;;
74168;SDS011;62523;53.336;83.690;2023-03-14T13:34:40;32.17;;;16.93;;
74168;SDS011;62523;53.336;83.690;2023-03-14T13:39:41;33.50;;;16.92;;
74168;SDS011;62523;53.336;83.690;2023-03-14T13:44:42;39.80;;;20.37;;
74168;SDS011;62523;53.336;83.690;2023-03-14T13:54:46;51.92;;;24.27;;
74168;SDS011;62523;53.336;83.690;2023-03-14T14:00:04;54.08;;;24.60;;
74168;SDS011;62523;53.336;83.690;2023-03-14T14:05:10;48.00;;;22.90;;
74168;SDS011;62523;53.336;83.690;2023-03-14T14:10:12;49.17;;;23.80;;
74168;SDS011;62523;53.336;83.690;2023-03-14T14:15:15;53.17;;;23.45;;
74168;SDS011;62523;53.336;83.690;2023-03-14T14:20:27;47.35;;;21.75;;
74168;SDS011;62523;53.336;83.690;2023-03-14T14:25:34;55.05;;;23.70;;
74168;SDS011;62523;53.336;83.690;2023-03-14T14:30:37;55.13;;;22.20;;
74168;SDS011;62523;53.336;83.690;2023-03-14T14:35:38;52.03;;;25.27;;
74168;SDS011;62523;53.336;83.690;2023-03-14T14:40:46;59.25;;;26.83;;
74168;SDS011;62523;53.336;83.690;2023-03-14T14:45:54;52.40;;;27.02;;
74168;SDS011;62523;53.336;83.690;2023-03-14T14:51:03;51.58;;;25.23;;
74168;SDS011;62523;53.336;83.690;2023-03-14T14:56:13;47.20;;;24.08;;
74168;SDS011;62523;53.336;83.690;2023-03-14T15:01:18;55.47;;;25.00;;
74168;SDS011;62523;53.336;83.690;2023-03-14T15:06:22;55.80;;;23.70;;
74168;SDS011;62523;53.336;83.690;2023-03-14T15:11:28;50.25;;;24.08;;
74168;SDS011;62523;53.336;83.690;2023-03-14T15:16:30;42.47;;;22.10;;
74168;SDS011;62523;53.336;83.690;2023-03-14T15:21:32;40.83;;;21.95;;
74168;SDS011;62523;53.336;83.690;2023-03-14T15:26:33;50.93;;;24.80;;
74168;SDS011;62523;53.336;83.690;2023-03-14T15:31:34;55.75;;;24.55;;
74168;SDS011;62523;53.336;83.690;2023-03-14T15:36:36;43.85;;;21.33;;
74168;SDS011;62523;53.336;83.690;2023-03-14T15:41:38;53.10;;;24.15;;
74168;SDS011;62523;53.336;83.690;2023-03-14T15:46:42;43.63;;;20.45;;
74168;SDS011;62523;53.336;83.690;2023-03-14T15:51:43;47.72;;;22.23;;
74168;SDS011;62523;53.336;83.690;2023-03-14T15:56:44;33.58;;;18.77;;
74168;SDS011;62523;53.336;83.690;2023-03-14T16:01:46;36.77;;;18.90;;
74168;SDS011;62523;53.336;83.690;2023-03-14T16:06:48;38.50;;;20.13;;
74168;SDS011;62523;53.336;83.690;2023-03-14T16:11:49;36.80;;;18.47;;
74168;SDS011;62523;53.336;83.690;2023-03-14T16:16:51;39.20;;;16.73;;
74168;SDS011;62523;53.336;83.690;2023-03-14T16:21:53;37.63;;;18.70;;
74168;SDS011;62523;53.336;83.690;2023-03-14T16:26:54;31.93;;;18.07;;
74168;SDS011;62523;53.336;83.690;2023-03-14T16:31:55;33.30;;;20.73;;
74168;SDS011;62523;53.336;83.690;2023-03-14T16:36:56;39.13;;;20.07;;
74168;SDS011;62523;53.336;83.690;2023-03-14T16:41:57;45.60;;;21.90;;
74168;SDS011;62523;53.336;83.690;2023-03-14T16:46:59;51.75;;;23.10;;
74168;SDS011;62523;53.336;83.690;2023-03-14T16:52:00;28.60;;;17.47;;
74168;SDS011;62523;53.336;83.690;2023-03-14T16:57:01;44.30;;;18.30;;
74168;SDS011;62523;53.336;83.690;2023-03-14T17:02:03;35.15;;;18.38;;
74168;SDS011;62523;53.336;83.690;2023-03-14T17:07:04;50.07;;;20.53;;
74168;SDS011;62523;53.336;83.690;2023-03-14T17:12:05;31.77;;;16.73;;
74168;SDS011;62523;53.336;83.690;2023-03-14T17:17:06;32.30;;;15.55;;
74168;SDS011;62523;53.336;83.690;2023-03-14T17:22:08;21.00;;;11.88;;
74168;SDS011;62523;53.336;83.690;2023-03-14T17:27:09;32.92;;;14.68;;
74168;SDS011;62523;53.336;83.690;2023-03-14T17:32:10;33.93;;;15.93;;
74168;SDS011;62523;53.336;83.690;2023-03-14T17:37:11;36.23;;;17.30;;
74168;SDS011;62523;53.336;83.690;2023-03-14T17:42:13;39.80;;;16.45;;
74168;SDS011;62523;53.336;83.690;2023-03-14T17:47:14;24.98;;;13.35;;
74168;SDS011;62523;53.336;83.690;2023-03-14T17:52:15;25.42;;;12.63;;
74168;SDS011;62523;53.336;83.690;2023-03-14T17:57:16;21.20;;;11.10;;
74168;SDS011;62523;53.336;83.690;2023-03-14T18:02:17;23.50;;;11.80;;
74168;SDS011;62523;53.336;83.690;2023-03-14T18:07:18;18.40;;;10.83;;
74168;SDS011;62523;53.336;83.690;2023-03-14T18:12:20;23.08;;;11.48;;
74168;SDS011;62523;53.336;83.690;2023-03-14T18:22:23;19.33;;;10.40;;
74168;SDS011;62523;53.336;83.690;2023-03-14T18:27:24;25.02;;;10.98;;
74168;SDS011;62523;53.336;83.690;2023-03-14T18:32:26;24.40;;;10.43;;
74168;SDS011;62523;53.336;83.690;2023-03-14T18:37:27;28.13;;;10.65;;
74168;SDS011;62523;53.336;83.690;2023-03-14T18:42:28;20.63;;;9.63;;
74168;SDS011;62523;53.336;83.690;2023-03-14T18:47:29;20.97;;;10.20;;
74168;SDS011;62523;53.336;83.690;2023-03-14T18:52:35;22.73;;;10.02;;
74168;SDS011;62523;53.336;83.690;2023-03-14T18:57:36;22.67;;;11.90;;
74168;SDS011;62523;53.336;83.690;2023-03-14T19:02:37;21.00;;;10.33;;
74168;SDS011;62523;53.336;83.690;2023-03-14T19:07:38;26.40;;;10.77;;
74168;SDS011;62523;53.336;83.690;2023-03-14T19:12:40;32.97;;;11.53;;
74168;SDS011;62523;53.336;83.690;2023-03-14T19:17:41;26.87;;;13.30;;
74168;SDS011;62523;53.336;83.690;2023-03-14T19:22:42;25.23;;;12.97;;
74168;SDS011;62523;53.336;83.690;2023-03-14T19:27:43;22.33;;;12.53;;
74168;SDS011;62523;53.336;83.690;2023-03-14T19:32:44;21.27;;;12.13;;
74168;SDS011;62523;53.336;83.690;2023-03-14T19:37:45;19.88;;;12.00;;
74168;SDS011;62523;53.336;83.690;2023-03-14T19:42:46;24.85;;;11.18;;
74168;SDS011;62523;53.336;83.690;2023-03-14T19:47:47;27.30;;;11.02;;
74168;SDS011;62523;53.336;83.690;2023-03-14T19:52:49;23.20;;;12.13;;
74168;SDS011;62523;53.336;83.690;2023-03-14T19:57:50;30.27;;;13.60;;
74168;SDS011;62523;53.336;83.690;2023-03-14T20:02:51;35.50;;;19.45;;
74168;SDS011;62523;53.336;83.690;2023-03-14T20:07:53;46.40;;;20.17;;
74168;SDS011;62523;53.336;83.690;2023-03-14T20:12:54;44.30;;;21.98;;
74168;SDS011;62523;53.336;83.690;2023-03-14T20:17:55;30.27;;;17.93;;
74168;SDS011;62523;53.336;83.690;2023-03-14T20:22:56;40.07;;;17.00;;
74168;SDS011;62523;53.336;83.690;2023-03-14T20:27:57;39.33;;;16.77;;
74168;SDS011;62523;53.336;83.690;2023-03-14T20:32:59;33.17;;;16.13;;
74168;SDS011;62523;53.336;83.690;2023-03-14T20:38:03;23.92;;;12.07;;
74168;SDS011;62523;53.336;83.690;2023-03-14T20:43:04;27.00;;;13.63;;
74168;SDS011;62523;53.336;83.690;2023-03-14T20:48:07;28.25;;;16.17;;
74168;SDS011;62523;53.336;83.690;2023-03-14T20:53:08;29.87;;;15.33;;
74168;SDS011;62523;53.336;83.690;2023-03-14T20:58:09;37.13;;;16.02;;
74168;SDS011;62523;53.336;83.690;2023-03-14T21:03:13;24.50;;;12.88;;
74168;SDS011;62523;53.336;83.690;2023-03-14T21:08:15;48.58;;;14.10;;
74168;SDS011;62523;53.336;83.690;2023-03-14T21:13:18;26.25;;;12.10;;
74168;SDS011;62523;53.336;83.690;2023-03-14T21:18:19;25.83;;;11.57;;
74168;SDS011;62523;53.336;83.690;2023-03-14T21:23:22;26.50;;;10.90;;
74168;SDS011;62523;53.336;83.690;2023-03-14T21:28:25;30.88;;;12.93;;
74168;SDS011;62523;53.336;83.690;2023-03-14T21:33:27;28.90;;;11.88;;
74168;SDS011;62523;53.336;83.690;2023-03-14T21:38:28;22.77;;;11.02;;
74168;SDS011;62523;53.336;83.690;2023-03-14T21:43:29;30.65;;;12.35;;
74168;SDS011;62523;53.336;83.690;2023-03-14T21:48:30;38.55;;;13.82;;
74168;SDS011;62523;53.336;83.690;2023-03-14T21:53:33;56.38;;;16.65;;
74168;SDS011;62523;53.336;83.690;2023-03-14T21:58:35;39.58;;;16.63;;
74168;SDS011;62523;53.336;83.690;2023-03-14T22:03:36;30.77;;;16.87;;
74168;SDS011;62523;53.336;83.690;2023-03-14T22:08:38;39.45;;;16.50;;
74168;SDS011;62523;53.336;83.690;2023-03-14T22:13:39;31.23;;;14.63;;
74168;SDS011;62523;53.336;83.690;2023-03-14T22:18:40;63.55;;;26.83;;
74168;SDS011;62523;53.336;83.690;2023-03-14T22:23:41;35.70;;;15.55;;
74168;SDS011;62523;53.336;83.690;2023-03-14T22:28:42;42.53;;;18.45;;
74168;SDS011;62523;53.336;83.690;2023-03-14T22:33:43;55.57;;;22.93;;
74168;SDS011;62523;53.336;83.690;2023-03-14T22:38:44;39.55;;;20.63;;
74168;SDS011;62523;53.336;83.690;2023-03-14T22:43:45;58.38;;;24.42;;
74168;SDS011;62523;53.336;83.690;2023-03-14T22:48:46;44.43;;;21.13;;
74168;SDS011;62523;53.336;83.690;2023-03-14T22:53:48;44.97;;;19.90;;
74168;SDS011;62523;53.336;83.690;2023-03-14T22:58:49;44.80;;;18.40;;
74168;SDS011;62523;53.336;83.690;2023-03-14T23:03:50;54.05;;;22.55;;
74168;SDS011;62523;53.336;83.690;2023-03-14T23:08:51;55.67;;;22.27;;
74168;SDS011;62523;53.336;83.690;2023-03-14T23:13:53;65.80;;;28.30;;
74168;SDS011;62523;53.336;83.690;2023-03-14T23:18:54;52.92;;;25.05;;
74168;SDS011;62523;53.336;83.690;2023-03-14T23:23:55;51.97;;;25.80;;
74168;SDS011;62523;53.336;83.690;2023-03-14T23:28:56;56.77;;;22.90;;
74168;SDS011;62523;53.336;83.690;2023-03-14T23:33:57;57.28;;;28.38;;
74168;SDS011;62523;53.336;83.690;2023-03-14T23:38:58;110.40;;;45.78;;
74168;SDS011;62523;53.336;83.690;2023-03-14T23:43:59;74.57;;;34.00;;
74168;SDS011;62523;53.336;83.690;2023-03-14T23:49:03;75.50;;;32.40;;
74168;SDS011;62523;53.336;83.690;2023-03-14T23:54:04;80.90;;;35.70;;
74168;SDS011;62523;53.336;83.690;2023-03-14T23:59:06;89.20;;;35.45;;
